Time;durP1;ratioP1;P1;durP2;ratioP2;P2;SDS_P1;SDS_P2;PMS_P1;PMS_P2;Temp;Humidity;BMP_temperature;BMP_pressure;BME280_temperature;BME280_humidity;BME280_pressure;Samples;Min_cycle;Max_cycle;Signal;HPM_P1;HPM_P2
2024/01/04 00:01:27;;;;;;;9.25;5.28;;;;;;;-9.63;81.07;100853.88;5043427;28;20132;-62
2024/01/04 00:03:57;;;;;;;7.10;5.03;;;;;;;-9.46;80.65;100866.84;5047351;28;20060;-60
2024/01/04 00:06:29;;;;;;;9.98;5.95;;;;;;;-9.40;80.07;100857.19;5063278;28;20053;-62
2024/01/04 00:09:00;;;;;;;7.13;4.90;;;;;;;-9.37;79.53;100859.94;5053298;28;20052;-61
2024/01/04 00:11:30;;;;;;;10.95;6.00;;;;;;;-9.29;79.47;100858.84;5063427;28;20048;-60
2024/01/04 00:14:02;;;;;;;10.05;5.38;;;;;;;-9.26;79.11;100861.59;5053615;28;20044;-59
2024/01/04 00:16:34;;;;;;;10.35;5.05;;;;;;;-9.17;78.90;100863.91;5066449;28;20131;-59
2024/01/04 00:19:05;;;;;;;9.85;4.72;;;;;;;-8.89;79.45;100871.81;5056095;28;20143;-60
2024/01/04 00:21:37;;;;;;;9.77;5.20;;;;;;;-8.73;78.76;100872.13;5060990;28;20135;-61
2024/01/04 00:24:08;;;;;;;9.93;5.55;;;;;;;-9.01;78.17;100815.22;5067190;28;20048;-62
2024/01/04 00:26:39;;;;;;;9.50;5.85;;;;;;;-8.64;77.99;100856.66;5056370;28;20055;-61
2024/01/04 00:29:09;;;;;;;13.15;6.55;;;;;;;-8.65;77.47;100833.78;5066541;28;20044;-60
2024/01/04 00:31:40;;;;;;;9.93;6.20;;;;;;;-8.32;77.23;100853.78;5056414;28;20151;-61
2024/01/04 00:34:11;;;;;;;10.43;5.00;;;;;;;-8.02;77.27;100849.03;5066252;28;20044;-59
2024/01/04 00:36:43;;;;;;;9.50;5.88;;;;;;;-7.89;76.28;100846.53;5055833;28;20144;-60
2024/01/04 00:39:14;;;;;;;11.10;6.10;;;;;;;-7.77;76.09;100849.00;5066673;28;20105;-59
2024/01/04 00:41:44;;;;;;;10.82;6.18;;;;;;;-7.66;75.99;100842.09;5055739;28;20492;-59
2024/01/04 00:44:15;;;;;;;14.43;6.43;;;;;;;-7.62;75.64;100831.38;5066106;28;20755;-59
2024/01/04 00:46:45;;;;;;;15.18;6.70;;;;;;;-7.59;75.73;100826.50;5055970;28;20064;-59
2024/01/04 00:49:16;;;;;;;9.52;6.05;;;;;;;-7.54;76.05;100825.13;5066342;28;20056;-58
2024/01/04 00:51:48;;;;;;;11.43;6.47;;;;;;;-7.59;75.52;100823.97;5051554;28;20094;-59
2024/01/04 00:54:18;;;;;;;11.35;6.78;;;;;;;-7.60;75.15;100832.38;5026887;28;20057;-59
2024/01/04 00:56:49;;;;;;;11.75;6.22;;;;;;;-7.63;75.29;100809.34;5018341;28;20071;-59
2024/01/04 00:59:19;;;;;;;9.85;6.15;;;;;;;-7.47;76.00;100827.28;5027112;28;20061;-58
2024/01/04 01:01:50;;;;;;;8.95;5.47;;;;;;;-7.25;76.22;100826.16;5017006;28;20071;-61
2024/01/04 01:04:20;;;;;;;14.20;6.47;;;;;;;-7.03;76.74;100821.66;5043454;28;20051;-59
2024/01/04 01:06:52;;;;;;;10.77;5.63;;;;;;;-6.85;76.50;100821.03;5036001;28;20056;-60
2024/01/04 01:09:23;;;;;;;14.50;8.43;;;;;;;-6.71;75.90;100815.16;5056590;28;20072;-59
2024/01/04 01:11:53;;;;;;;14.45;7.78;;;;;;;-6.57;75.91;100814.31;5036596;28;20053;-59
2024/01/04 01:14:24;;;;;;;14.68;7.40;;;;;;;-6.40;75.32;100814.47;5045919;28;20128;-60
2024/01/04 01:16:55;;;;;;;13.57;7.53;;;;;;;-6.25;75.31;100807.75;5032299;28;20057;-61
2024/01/04 01:19:25;;;;;;;11.88;7.13;;;;;;;-6.09;75.10;100810.44;5026945;28;20135;-59
2024/01/04 01:21:58;;;;;;;13.38;7.97;;;;;;;-6.00;74.83;100804.13;5017277;28;20178;-59
2024/01/04 01:24:28;;;;;;;12.77;8.15;;;;;;;-5.81;75.14;100801.81;5026691;28;20053;-59
2024/01/04 01:26:58;;;;;;;22.48;10.98;;;;;;;-5.81;74.56;100801.81;5016574;28;20049;-61
2024/01/04 01:29:29;;;;;;;13.93;8.07;;;;;;;-5.79;74.77;100800.25;5026654;28;20130;-60
2024/01/04 01:31:59;;;;;;;12.55;7.93;;;;;;;-5.69;74.63;100796.53;5015688;28;20732;-60
2024/01/04 01:34:30;;;;;;;14.77;8.23;;;;;;;-5.68;74.33;100798.31;5025929;28;20052;-61
2024/01/04 01:37:02;;;;;;;13.98;7.70;;;;;;;-5.86;74.01;100793.03;5015596;28;20073;-60
2024/01/04 01:39:32;;;;;;;16.50;8.93;;;;;;;-5.97;74.42;100794.09;5025951;28;20056;-59
2024/01/04 01:42:03;;;;;;;13.90;7.97;;;;;;;-6.11;74.78;100791.66;5016283;28;20053;-59
2024/01/04 01:44:33;;;;;;;16.23;8.85;;;;;;;-6.07;75.53;100788.47;5025939;28;20053;-59
2024/01/04 01:47:04;;;;;;;16.92;8.90;;;;;;;-6.08;75.47;100775.69;5010565;28;20083;-59
2024/01/04 01:49:35;;;;;;;14.15;7.57;;;;;;;-5.88;75.96;100784.44;5026414;28;20135;-60
2024/01/04 01:52:07;;;;;;;15.40;8.38;;;;;;;-5.54;76.60;100786.34;5025650;28;20065;-61
2024/01/04 01:54:39;;;;;;;18.38;8.73;;;;;;;-5.24;76.50;100777.91;5015554;28;20048;-61
2024/01/04 01:57:10;;;;;;;13.88;7.13;;;;;;;-4.91;76.56;100777.97;5018745;28;20052;-60
2024/01/04 01:59:41;;;;;;;11.32;6.10;;;;;;;-4.55;76.02;100780.72;5011302;28;20167;-59
2024/01/04 02:02:12;;;;;;;14.10;5.38;;;;;;;-4.25;75.77;100775.44;5025162;28;20055;-59
2024/01/04 02:04:43;;;;;;;8.35;5.25;;;;;;;-4.02;74.97;100769.84;4996300;28;20103;-59
2024/01/04 02:07:15;;;;;;;7.97;4.63;;;;;;;-3.88;74.89;100759.44;5022689;28;20084;-60
2024/01/04 02:09:45;;;;;;;9.05;4.85;;;;;;;-3.93;74.45;100756.66;5015842;28;20052;-61
2024/01/04 02:12:16;;;;;;;9.63;4.50;;;;;;;-4.11;74.58;100731.09;5020179;28;20049;-58
2024/01/04 02:14:48;;;;;;;11.07;5.50;;;;;;;-4.03;74.22;100745.09;5001818;28;20077;-60
2024/01/04 02:17:19;;;;;;;11.60;4.15;;;;;;;-4.07;74.28;100748.28;5024490;28;20052;-59
2024/01/04 02:19:50;;;;;;;6.95;4.18;;;;;;;-4.02;74.60;100752.00;5041144;28;20049;-58
2024/01/04 02:22:45;;;;;;;5.40;3.78;;;;;;;-4.03;74.40;100740.00;5033929;28;20140;-60
2024/01/04 02:25:16;;;;;;;9.75;4.82;;;;;;;-4.00;73.90;100740.16;5048831;28;20700;-60
2024/01/04 02:27:46;;;;;;;8.15;4.28;;;;;;;-4.00;74.54;100745.25;5028925;28;20072;-59
2024/01/04 02:30:17;;;;;;;10.75;5.00;;;;;;;-4.07;74.20;100743.19;5025750;28;20119;-60
2024/01/04 02:32:48;;;;;;;9.27;4.60;;;;;;;-4.23;73.99;100750.91;5035127;28;20198;-60
2024/01/04 02:35:19;;;;;;;10.88;5.85;;;;;;;-4.27;74.58;100736.22;5044902;28;20044;-61
2024/01/04 02:37:51;;;;;;;12.65;5.85;;;;;;;-4.30;75.12;100738.63;5033587;28;20060;-59
2024/01/04 02:40:22;;;;;;;10.70;5.90;;;;;;;-5.05;75.02;100618.34;5044719;28;20063;-58
2024/01/04 02:42:53;;;;;;;9.95;5.63;;;;;;;-4.43;75.20;100725.22;5034434;28;20060;-59
2024/01/04 02:45:23;;;;;;;13.38;9.18;;;;;;;-4.48;75.42;100733.47;5044149;28;20131;-59
2024/01/04 02:47:54;;;;;;;21.17;10.25;;;;;;;-4.37;75.58;100717.00;5036257;28;20052;-60
2024/01/04 02:50:24;;;;;;;12.55;7.72;;;;;;;-4.03;75.67;100718.72;5064132;28;20039;-59
2024/01/04 02:52:56;;;;;;;10.23;6.30;;;;;;;-4.03;75.13;100716.16;5053477;28;20104;-60
2024/01/04 02:55:27;;;;;;;11.48;5.03;;;;;;;-4.27;75.05;100713.25;5063356;28;20131;-60
2024/01/04 02:57:57;;;;;;;14.80;9.43;;;;;;;-4.60;75.21;100718.38;5053315;28;20542;-59
2024/01/04 03:00:27;;;;;;;12.57;8.27;;;;;;;-4.88;75.54;100705.88;5063675;28;20109;-60
2024/01/04 03:02:58;;;;;;;11.43;7.05;;;;;;;-5.09;76.17;100690.31;5053753;28;20134;-58
2024/01/04 03:05:28;;;;;;;14.20;6.40;;;;;;;-5.10;76.63;100709.84;5064259;28;20082;-59
2024/01/04 03:08:01;;;;;;;11.07;6.03;;;;;;;-5.03;77.00;100695.75;5050845;28;20067;-59
2024/01/04 03:10:31;;;;;;;10.13;5.65;;;;;;;-5.01;77.25;100704.38;5058269;28;20048;-60
2024/01/04 03:13:03;;;;;;;11.02;5.80;;;;;;;-4.80;77.75;100686.75;5048116;28;20101;-61
2024/01/04 03:15:33;;;;;;;8.88;5.85;;;;;;;-4.63;78.24;100687.63;5058417;28;20071;-61
2024/01/04 03:18:03;;;;;;;11.02;6.13;;;;;;;-4.43;78.82;100686.97;5037086;28;20052;-61
2024/01/04 03:20:34;;;;;;;12.75;6.78;;;;;;;-4.38;78.79;100675.31;5059428;28;20097;-60
2024/01/04 03:23:06;;;;;;;11.05;5.68;;;;;;;-4.21;79.77;100662.53;5041122;28;20055;-60
2024/01/04 03:25:37;;;;;;;9.52;5.90;;;;;;;-4.18;79.46;100675.44;5047373;28;20135;-60
2024/01/04 03:28:08;;;;;;;11.35;5.60;;;;;;;-4.16;79.08;100666.19;5059309;28;20082;-60
2024/01/04 03:30:38;;;;;;;9.77;6.63;;;;;;;-4.15;79.47;100668.81;5048708;28;20496;-60
2024/01/04 03:33:08;;;;;;;19.23;7.05;;;;;;;-4.05;79.61;100665.03;5059712;28;20059;-61
2024/01/04 03:35:39;;;;;;;13.43;7.50;;;;;;;-4.02;79.67;100661.75;5046575;28;20056;-60
2024/01/04 03:38:11;;;;;;;14.68;8.10;;;;;;;-3.94;79.91;100663.88;5058923;28;20165;-61
2024/01/04 03:40:41;;;;;;;11.38;6.88;;;;;;;-3.91;79.65;100658.06;5048351;28;20148;-61
2024/01/04 03:43:12;;;;;;;19.23;9.70;;;;;;;-3.93;79.19;100665.63;5058952;28;20062;-60
2024/01/04 03:45:42;;;;;;;15.90;8.88;;;;;;;-3.92;79.43;100662.28;5049218;28;20089;-61
2024/01/04 03:48:13;;;;;;;12.75;7.32;;;;;;;-3.94;79.68;100658.78;5060069;28;20055;-60
2024/01/04 03:50:43;;;;;;;15.43;8.10;;;;;;;-3.98;79.83;100651.75;5052866;28;20048;-60
2024/01/04 03:53:16;;;;;;;18.05;8.48;;;;;;;-3.91;80.59;100658.06;5060357;28;20131;-59
2024/01/04 03:55:46;;;;;;;16.90;9.65;;;;;;;-3.79;80.57;100648.44;5050597;28;20484;-60
2024/01/04 03:58:16;;;;;;;24.65;12.13;;;;;;;-3.77;80.76;100651.03;5061317;28;20143;-59
2024/01/04 04:00:47;;;;;;;19.27;10.73;;;;;;;-3.71;80.52;100642.00;5052745;28;20679;-59
2024/01/04 04:03:19;;;;;;;22.52;10.88;;;;;;;-3.51;80.76;100642.06;5063808;28;20063;-59
2024/01/04 04:05:50;;;;;;;18.90;10.55;;;;;;;-3.20;79.86;100641.75;5053420;28;20043;-60
2024/01/04 04:08:22;;;;;;;23.02;11.50;;;;;;;-3.05;79.03;100636.44;5063682;28;20043;-59
2024/01/04 04:10:53;;;;;;;20.02;10.70;;;;;;;-3.05;78.87;100642.44;5052523;28;20048;-60
2024/01/04 04:13:23;;;;;;;21.77;12.73;;;;;;;-3.06;78.77;100635.59;5062941;28;20066;-59
2024/01/04 04:15:53;;;;;;;29.92;14.60;;;;;;;-3.04;78.61;100633.97;5052121;28;20130;-60
2024/01/04 04:18:24;;;;;;;25.73;14.45;;;;;;;-3.12;77.64;100644.66;5062281;28;20059;-59
2024/01/04 04:20:55;;;;;;;19.35;11.45;;;;;;;-3.15;78.36;100645.38;5052363;28;20071;-60
2024/01/04 04:23:27;;;;;;;20.48;11.10;;;;;;;-3.20;78.32;100649.41;5062909;28;20052;-59
2024/01/04 04:25:57;;;;;;;33.38;17.98;;;;;;;-3.30;77.98;100644.69;5052161;28;20056;-59
2024/01/04 04:28:28;;;;;;;24.50;13.30;;;;;;;-3.41;78.39;100635.69;5059984;28;20074;-59
2024/01/04 04:30:58;;;;;;;26.17;11.88;;;;;;;-3.54;78.77;100642.78;5051319;28;20108;-59
2024/01/04 04:33:29;;;;;;;21.10;11.25;;;;;;;-4.11;79.48;100552.44;5061756;28;20472;-61
2024/01/04 04:36:00;;;;;;;24.40;12.82;;;;;;;-3.62;79.84;100625.34;5051667;28;20051;-61
2024/01/04 04:38:32;;;;;;;24.67;12.68;;;;;;;-3.56;80.84;100630.75;5062002;28;20052;-60
2024/01/04 04:41:04;;;;;;;21.23;11.30;;;;;;;-3.52;80.48;100633.53;5051468;28;20056;-60
2024/01/04 04:43:35;;;;;;;20.20;10.30;;;;;;;-3.70;80.63;100640.31;5059662;28;20130;-61
2024/01/04 04:46:09;;;;;;;27.52;10.00;;;;;;;-3.95;80.37;100634.03;5044124;28;20044;-60
2024/01/04 04:48:40;;;;;;;17.95;8.82;;;;;;;-4.01;81.11;100641.41;5051111;28;20052;-61
2024/01/04 04:51:12;;;;;;;15.90;8.30;;;;;;;-4.32;81.11;100617.75;5062625;28;20059;-60
2024/01/04 04:53:44;;;;;;;16.95;8.73;;;;;;;-4.47;81.74;100644.25;5050883;28;20059;-60
2024/01/04 04:56:14;;;;;;;18.70;8.77;;;;;;;-4.59;82.64;100644.53;5061674;28;21274;-60
2024/01/04 04:58:45;;;;;;;14.57;7.90;;;;;;;-4.58;83.29;100650.50;5049371;28;20797;-59
2024/01/04 05:01:15;;;;;;;21.92;9.00;;;;;;;-4.45;83.94;100642.66;5058485;28;20134;-61
2024/01/04 05:03:46;;;;;;;14.40;7.57;;;;;;;-4.37;84.16;100655.78;5051284;28;20052;-60
2024/01/04 05:06:18;;;;;;;14.43;8.10;;;;;;;-4.37;84.48;100640.47;5062115;28;20583;-60
2024/01/04 05:08:50;;;;;;;18.65;8.30;;;;;;;-4.31;85.10;100650.13;5050983;28;20076;-59
2024/01/04 05:11:21;;;;;;;16.85;8.18;;;;;;;-4.25;84.81;100650.44;5061524;28;20048;-60
2024/01/04 05:13:51;;;;;;;17.05;8.90;;;;;;;-4.21;84.92;100647.22;5048521;28;20052;-59
2024/01/04 05:16:21;;;;;;;19.92;9.82;;;;;;;-4.19;85.45;100650.75;5061301;28;20098;-60
2024/01/04 05:18:52;;;;;;;24.10;11.93;;;;;;;-4.13;85.56;100651.03;5050670;28;20052;-61
2024/01/04 05:21:22;;;;;;;28.50;12.20;;;;;;;-4.13;85.80;100653.56;5060981;28;20044;-61
2024/01/04 05:23:54;;;;;;;29.52;12.85;;;;;;;-4.14;85.53;100649.28;5050646;28;20043;-61
2024/01/04 05:26:26;;;;;;;30.20;13.43;;;;;;;-4.20;85.98;100654.06;5055778;28;20052;-60
2024/01/04 05:28:56;;;;;;;23.13;11.50;;;;;;;-4.20;86.19;100654.06;5050900;28;20128;-60
2024/01/04 05:31:27;;;;;;;23.75;12.07;;;;;;;-4.14;86.69;100649.28;5060642;28;20047;-60
2024/01/04 05:33:58;;;;;;;28.85;12.57;;;;;;;-4.02;86.51;100649.88;5050566;28;20072;-60
2024/01/04 05:36:30;;;;;;;21.95;11.13;;;;;;;-3.95;86.07;100657.00;5060700;28;20062;-60
2024/01/04 05:39:03;;;;;;;17.42;8.30;;;;;;;-3.90;86.24;100655.56;5043009;28;20144;-61
2024/01/04 05:41:33;;;;;;;26.20;10.25;;;;;;;-3.94;86.16;100653.66;5060707;28;20054;-60
2024/01/04 05:44:04;;;;;;;23.10;11.30;;;;;;;-4.08;85.50;100654.69;5047500;28;20709;-61
2024/01/04 05:46:34;;;;;;;14.95;8.30;;;;;;;-4.18;85.87;100658.44;5057871;28;20135;-60
2024/01/04 05:49:05;;;;;;;21.35;9.93;;;;;;;-4.28;85.51;100652.84;5042396;28;20496;-60
2024/01/04 05:51:35;;;;;;;16.95;9.85;;;;;;;-4.34;85.99;100655.97;5056352;28;20131;-60
2024/01/04 05:54:13;;;;;;;21.92;10.13;;;;;;;-4.46;86.48;100671.53;5060643;28;20203;-59
2024/01/04 05:56:44;;;;;;;16.65;9.38;;;;;;;-4.46;86.87;100666.41;5047409;28;20093;-59
2024/01/04 05:59:15;;;;;;;13.43;6.60;;;;;;;-4.55;87.25;100665.94;5058035;28;20047;-61
2024/01/04 06:01:46;;;;;;;14.68;6.75;;;;;;;-4.61;88.01;100670.75;5051597;28;20063;-60
2024/01/04 06:04:16;;;;;;;16.05;6.60;;;;;;;-4.69;88.29;100662.72;5058116;28;20817;-60
2024/01/04 06:06:47;;;;;;;12.23;5.85;;;;;;;-4.70;88.74;100663.50;5053231;28;20052;-59
2024/01/04 06:09:20;;;;;;;11.63;6.97;;;;;;;-4.67;89.24;100666.19;5063661;28;20127;-60
2024/01/04 06:11:52;;;;;;;11.68;6.15;;;;;;;-4.61;89.72;100668.19;5025232;28;20110;-59
2024/01/04 06:14:21;;;;;;;11.50;6.65;;;;;;;-4.63;89.63;100673.22;5025156;28;20068;-59
2024/01/04 06:16:51;;;;;;;11.57;5.95;;;;;;;-4.72;89.65;100669.31;5011721;28;20145;-57
2024/01/04 06:19:22;;;;;;;11.80;6.38;;;;;;;-4.86;90.25;100649.09;5005918;28;20080;-58
2024/01/04 06:21:52;;;;;;;12.10;6.20;;;;;;;-4.72;90.74;100661.66;4995860;28;20045;-59
2024/01/04 06:24:24;;;;;;;12.43;6.70;;;;;;;-4.77;90.61;100664.88;5006015;28;20056;-61
2024/01/04 06:26:55;;;;;;;12.30;6.72;;;;;;;-4.75;90.79;100669.16;4996902;28;20119;-59
2024/01/04 06:29:24;;;;;;;12.73;5.22;;;;;;;-4.79;90.74;100663.91;5005759;28;20115;-60
2024/01/04 06:31:54;;;;;;;7.15;4.95;;;;;;;-4.85;91.09;100671.22;4996272;28;20068;-58
2024/01/04 06:34:25;;;;;;;12.32;6.07;;;;;;;-4.90;91.23;100677.75;5019672;28;20135;-60
2024/01/04 06:36:55;;;;;;;10.32;5.22;;;;;;;-4.94;91.53;100674.97;5015800;28;20064;-58
2024/01/04 06:39:28;;;;;;;10.70;5.68;;;;;;;-5.02;91.92;100672.00;5025153;28;20064;-59
2024/01/04 06:41:59;;;;;;;9.85;5.75;;;;;;;-5.18;91.93;100638.91;5015719;28;20488;-60
2024/01/04 06:44:29;;;;;;;11.02;5.85;;;;;;;-4.98;92.42;100673.94;5025396;28;20107;-58
2024/01/04 06:47:12;;;;;;;10.13;5.82;;;;;;;-5.02;92.76;100664.38;5014569;28;20481;-59
2024/01/04 06:49:43;;;;;;;8.98;5.85;;;;;;;-4.96;92.76;100671.47;5014473;28;20137;-58
2024/01/04 06:52:13;;;;;;;14.40;6.25;;;;;;;-5.03;92.82;100675.38;5024425;28;20388;-60
2024/01/04 06:54:45;;;;;;;13.52;6.38;;;;;;;-5.11;93.16;100671.56;5014868;28;20140;-58
2024/01/04 06:57:16;;;;;;;23.27;10.05;;;;;;;-5.10;93.14;100668.19;5024720;28;20452;-59
2024/01/04 06:59:46;;;;;;;28.88;12.88;;;;;;;-5.10;93.42;100673.28;5015030;28;20076;-59
2024/01/04 07:02:16;;;;;;;23.45;11.05;;;;;;;-5.14;93.80;100666.28;5024984;28;20060;-59
2024/01/04 07:04:47;;;;;;;15.32;7.90;;;;;;;-5.18;93.67;100665.25;5015443;28;20154;-59
2024/01/04 07:07:17;;;;;;;16.10;7.38;;;;;;;-5.25;93.89;100674.22;5024809;28;20102;-59
2024/01/04 07:09:50;;;;;;;13.32;6.90;;;;;;;-5.28;94.07;100674.06;5015310;28;20050;-60
2024/01/04 07:12:20;;;;;;;15.98;7.50;;;;;;;-5.33;94.40;100672.94;5025548;28;20136;-60
2024/01/04 07:14:51;;;;;;;16.88;9.48;;;;;;;-5.36;94.65;100675.34;5014990;28;20524;-58
2024/01/04 07:17:22;;;;;;;22.17;9.60;;;;;;;-5.46;95.14;100662.91;5038800;28;20048;-57
2024/01/04 07:19:53;;;;;;;21.38;10.38;;;;;;;-5.39;94.98;100680.28;5052752;28;20056;-58
2024/01/04 07:22:23;;;;;;;24.42;11.63;;;;;;;-5.40;95.96;100681.03;5063351;28;20043;-59
2024/01/04 07:24:56;;;;;;;23.42;10.20;;;;;;;-5.33;95.97;100684.81;5052414;28;20374;-59
2024/01/04 07:27:27;;;;;;;25.10;12.70;;;;;;;-5.32;96.52;100687.41;5063320;28;20131;-60
2024/01/04 07:30:00;;;;;;;22.13;9.13;;;;;;;-5.33;96.02;100684.81;5053294;28;20740;-60
2024/01/04 07:32:30;;;;;;;17.25;9.30;;;;;;;-5.34;96.11;100694.13;5063525;28;20105;-61
2024/01/04 07:35:01;;;;;;;16.50;9.10;;;;;;;-5.36;96.17;100694.84;5052313;28;20117;-60
2024/01/04 07:37:45;;;;;;;19.48;8.95;;;;;;;-5.43;96.16;100698.72;5052510;28;20067;-60
2024/01/04 07:40:17;;;;;;;18.73;9.18;;;;;;;-5.44;96.50;100702.94;5062848;28;20139;-60
2024/01/04 07:42:47;;;;;;;16.45;9.07;;;;;;;-5.35;96.98;100702.53;5044792;28;20446;-60
2024/01/04 07:45:18;;;;;;;15.98;7.72;;;;;;;-5.38;96.54;100712.56;5033383;28;20131;-60
2024/01/04 07:47:49;;;;;;;17.50;8.23;;;;;;;-5.31;97.07;100709.56;5032720;28;20047;-59
2024/01/04 07:50:19;;;;;;;16.95;8.02;;;;;;;-5.31;97.12;100704.47;5058788;28;20052;-58
2024/01/04 07:52:50;;;;;;;16.33;8.13;;;;;;;-5.32;96.95;100706.94;5038739;28;20763;-59
2024/01/04 07:55:22;;;;;;;15.13;7.20;;;;;;;-5.35;97.09;100707.63;5059077;28;20052;-59
2024/01/04 07:57:52;;;;;;;15.60;8.05;;;;;;;-5.35;97.03;100697.44;5014955;28;20060;-58
2024/01/04 08:00:23;;;;;;;15.88;8.32;;;;;;;-5.29;97.53;100709.63;5034664;28;20080;-59
2024/01/04 08:02:54;;;;;;;19.67;9.27;;;;;;;-5.31;97.70;100709.56;5027743;28;20041;-60
2024/01/04 08:05:24;;;;;;;14.38;8.20;;;;;;;-5.25;97.76;100717.53;5038366;28;20780;-60
2024/01/04 08:07:55;;;;;;;15.75;9.13;;;;;;;-5.29;97.69;100708.00;5028487;28;20061;-59
2024/01/04 08:10:27;;;;;;;15.25;8.15;;;;;;;-5.27;97.91;100723.34;5038880;28;20518;-60
2024/01/04 08:12:57;;;;;;;18.88;8.20;;;;;;;-5.25;98.33;100714.97;5028603;28;20052;-58
2024/01/04 08:15:28;;;;;;;16.02;7.95;;;;;;;-5.26;98.39;100723.44;5038552;28;21295;-61
2024/01/04 08:17:59;;;;;;;19.63;7.88;;;;;;;-5.27;98.42;100724.19;5028792;28;20499;-60
2024/01/04 08:20:32;;;;;;;14.88;6.80;;;;;;;-5.27;98.39;100731.84;5038658;28;20664;-59
2024/01/04 08:23:03;;;;;;;12.98;7.30;;;;;;;-5.55;97.76;100692.94;5048238;28;20058;-59
2024/01/04 08:25:35;;;;;;;15.27;7.45;;;;;;;-5.38;97.35;100727.84;5058422;28;20060;-58
2024/01/04 08:28:06;;;;;;;13.90;7.28;;;;;;;-5.43;97.64;100724.19;5046424;28;20097;-59
2024/01/04 08:30:36;;;;;;;15.10;7.10;;;;;;;-5.43;97.86;100734.38;5049708;28;20088;-60
2024/01/04 08:33:07;;;;;;;13.77;6.93;;;;;;;-5.44;97.96;100728.41;5058371;28;20047;-59
2024/01/04 08:35:38;;;;;;;16.30;7.70;;;;;;;-5.49;98.45;100719.63;5050292;28;20138;-59
2024/01/04 08:38:08;;;;;;;16.30;7.90;;;;;;;-5.47;98.58;100732.44;5060081;28;20480;-59
2024/01/04 08:40:42;;;;;;;17.80;8.88;;;;;;;-5.44;98.35;100732.63;5052100;28;21377;-60
2024/01/04 08:43:13;;;;;;;15.50;8.18;;;;;;;-5.58;98.19;100708.06;5062206;28;20052;-59
2024/01/04 08:45:43;;;;;;;15.63;8.50;;;;;;;-5.57;98.08;100725.06;5051440;28;20117;-59
2024/01/04 08:48:14;;;;;;;18.15;8.35;;;;;;;-5.52;98.08;100713.47;5062590;28;20056;-57
2024/01/04 08:50:45;;;;;;;20.42;9.25;;;;;;;-5.55;97.89;100723.50;5051524;28;20125;-60
2024/01/04 08:53:20;;;;;;;17.90;8.80;;;;;;;-5.64;97.57;100729.84;5061884;28;20143;-59
2024/01/04 08:55:52;;;;;;;20.83;9.68;;;;;;;-5.60;97.81;100724.91;5051932;28;21197;-59
2024/01/04 08:58:22;;;;;;;19.10;9.48;;;;;;;-5.73;97.70;100703.00;5061971;28;20477;-59
2024/01/04 09:00:53;;;;;;;22.42;9.90;;;;;;;-5.68;98.30;100712.63;5049015;28;20044;-59
2024/01/04 09:03:24;;;;;;;19.48;8.82;;;;;;;-5.69;98.27;100709.97;5061395;28;20052;-58
2024/01/04 09:05:54;;;;;;;21.38;9.40;;;;;;;-5.76;98.83;100703.69;5052120;28;20045;-59
2024/01/04 09:08:26;;;;;;;19.98;10.20;;;;;;;-5.70;98.41;100723.50;5061484;28;20500;-59
2024/01/04 09:10:58;;;;;;;18.67;9.98;;;;;;;-5.75;98.77;100723.25;5050924;28;20102;-59
2024/01/04 09:13:29;;;;;;;14.95;7.90;;;;;;;-5.69;99.40;100726.16;5061060;28;20521;-60
2024/01/04 09:16:00;;;;;;;16.50;8.68;;;;;;;-5.69;99.68;100713.44;5050640;28;20055;-59
2024/01/04 09:18:33;;;;;;;19.38;8.88;;;;;;;-5.63;99.90;100711.22;5060132;28;20051;-60
2024/01/04 09:21:03;;;;;;;18.58;8.20;;;;;;;-5.61;99.77;100718.06;5051574;28;20638;-59
2024/01/04 09:23:34;;;;;;;16.33;8.50;;;;;;;-5.63;100.00;100726.50;5061456;28;20058;-59
2024/01/04 09:26:08;;;;;;;18.10;9.90;;;;;;;-5.57;100.00;100714.88;5050426;28;20068;-58
2024/01/04 09:28:39;;;;;;;18.05;8.52;;;;;;;-5.54;100.00;100725.25;5050403;28;20052;-59
2024/01/04 09:31:09;;;;;;;18.85;8.90;;;;;;;-5.51;100.00;100725.44;5061007;28;20059;-60
2024/01/04 09:33:40;;;;;;;15.35;8.27;;;;;;;-5.53;100.00;100732.09;5050787;28;20526;-59
2024/01/04 09:36:11;;;;;;;17.50;8.95;;;;;;;-5.54;100.00;100730.31;5061474;28;20076;-58
2024/01/04 09:38:42;;;;;;;19.10;8.98;;;;;;;-5.64;100.00;100719.66;5051165;28;20552;-60
2024/01/04 09:41:22;;;;;;;20.40;9.77;;;;;;;-5.64;100.00;100737.47;5060711;28;20093;-59
2024/01/04 09:43:57;;;;;;;19.10;10.30;;;;;;;-5.68;100.00;100738.09;5050315;28;20151;-58
2024/01/04 09:46:31;;;;;;;19.33;10.52;;;;;;;-5.77;100.00;100736.69;5060082;28;20340;-60
2024/01/04 09:49:02;;;;;;;22.75;10.63;;;;;;;-5.86;99.96;100732.84;5050055;28;20059;-60
2024/01/04 09:51:35;;;;;;;21.35;11.07;;;;;;;-5.87;99.60;100730.19;5060250;28;20253;-60
2024/01/04 09:54:07;;;;;;;24.92;12.07;;;;;;;-5.86;99.64;100737.06;5050986;28;20135;-59
2024/01/04 09:56:42;;;;;;;22.88;11.55;;;;;;;-5.91;99.50;100733.38;5050577;28;20817;-59
2024/01/04 09:59:12;;;;;;;26.45;12.00;;;;;;;-5.99;99.22;100734.63;5060838;28;20056;-59
2024/01/04 10:01:43;;;;;;;21.45;10.80;;;;;;;-6.02;99.00;100734.44;5050227;28;20439;-61
2024/01/04 10:04:16;;;;;;;22.92;11.18;;;;;;;-6.08;99.37;100730.75;5058154;28;20048;-59
2024/01/04 10:06:47;;;;;;;20.80;11.02;;;;;;;-6.00;99.86;100732.88;5050385;28;20063;-59
2024/01/04 10:09:25;;;;;;;21.00;12.13;;;;;;;-5.96;100.00;100729.72;5061808;28;20052;-60
2024/01/04 10:12:07;;;;;;;22.33;11.30;;;;;;;-5.97;100.00;100738.13;5050330;28;20838;-60
2024/01/04 10:14:38;;;;;;;22.08;11.50;;;;;;;-5.97;100.00;100743.22;5050074;28;20054;-58
2024/01/04 10:17:09;;;;;;;32.50;13.75;;;;;;;-5.91;100.00;100743.56;5060087;28;20055;-60
2024/01/04 10:19:40;;;;;;;24.30;13.05;;;;;;;-5.99;100.00;100729.53;5050353;28;20591;-59
2024/01/04 10:22:11;;;;;;;28.40;12.82;;;;;;;-5.89;100.00;100741.94;5058048;28;20052;-59
2024/01/04 10:24:41;;;;;;;22.17;12.45;;;;;;;-5.89;100.00;100739.41;5049598;28;20052;-60
2024/01/04 10:27:17;;;;;;;27.95;14.07;;;;;;;-5.94;100.00;100743.38;5060565;28;20103;-59
2024/01/04 10:29:51;;;;;;;27.40;14.10;;;;;;;-5.82;100.00;100754.22;5050697;28;20052;-60
2024/01/04 10:32:23;;;;;;;29.75;15.30;;;;;;;-5.77;100.00;100752.81;5060635;28;20076;-58
2024/01/04 10:35:06;;;;;;;29.05;15.32;;;;;;;-5.81;100.00;100742.41;5050066;28;20492;-60
2024/01/04 10:37:37;;;;;;;27.55;14.73;;;;;;;-5.85;100.00;100749.84;5051161;28;20151;-59
2024/01/04 10:40:10;;;;;;;26.40;14.77;;;;;;;-5.90;99.70;100750.38;5057974;28;20044;-59
2024/01/04 10:42:42;;;;;;;34.65;17.77;;;;;;;-6.22;99.72;100711.28;5050155;28;20139;-60
2024/01/04 10:45:14;;;;;;;34.28;17.75;;;;;;;-6.03;99.53;100750.50;5060858;28;20076;-60
2024/01/04 10:47:50;;;;;;;34.08;17.58;;;;;;;-6.10;99.44;100742.50;5049783;28;20067;-59
2024/01/04 10:50:24;;;;;;;37.67;18.33;;;;;;;-6.12;99.43;100744.09;5060116;28;20113;-60
2024/01/04 10:52:55;;;;;;;32.85;17.10;;;;;;;-6.34;98.96;100724.19;5049763;28;20076;-59
2024/01/04 10:55:26;;;;;;;32.08;17.15;;;;;;;-6.32;98.46;100753.09;5059708;28;20547;-59
2024/01/04 10:58:02;;;;;;;34.22;18.65;;;;;;;-6.41;97.98;100754.25;5048962;28;20382;-59
2024/01/04 11:00:33;;;;;;;38.78;18.23;;;;;;;-6.52;97.87;100757.00;5057888;28;20202;-59
2024/01/04 11:03:09;;;;;;;35.63;18.42;;;;;;;-6.64;97.87;100751.19;5047846;28;20148;-60
2024/01/04 11:05:41;;;;;;;33.92;17.90;;;;;;;-6.62;98.18;100749.59;5049459;28;20150;-58
2024/01/04 11:08:14;;;;;;;37.17;16.05;;;;;;;-6.68;97.96;100753.47;5059937;28;20411;-59
2024/01/04 11:10:45;;;;;;;27.75;15.32;;;;;;;-6.75;97.79;100763.25;5046678;28;20851;-60
2024/01/04 11:13:17;;;;;;;30.63;16.20;;;;;;;-6.78;98.03;100762.19;5058744;28;20094;-60
2024/01/04 11:15:50;;;;;;;30.05;14.35;;;;;;;-6.78;98.23;100762.19;5049404;28;20101;-59
2024/01/04 11:18:42;;;;;;;32.47;15.48;;;;;;;-6.81;97.98;100762.88;5059921;28;20062;-59
2024/01/04 11:21:33;;;;;;;32.42;16.75;;;;;;;-6.89;97.63;100763.19;5048880;28;20044;-59
2024/01/04 11:24:05;;;;;;;34.58;16.95;;;;;;;-7.29;97.32;100710.78;5048728;28;20102;-59
2024/01/04 11:26:56;;;;;;;44.80;16.63;;;;;;;-7.02;97.24;100782.75;5051993;28;20105;-60
2024/01/04 11:29:29;;;;;;;35.40;17.63;;;;;;;-7.09;97.17;100775.53;5056668;28;20052;-59
2024/01/04 11:32:00;;;;;;;39.72;17.60;;;;;;;-7.24;96.27;100774.56;5048328;28;20052;-59
2024/01/04 11:34:32;;;;;;;49.22;21.00;;;;;;;-7.26;96.46;100771.03;5056622;28;20071;-60